Terminal Aerodrome Forecast
Issued by NWS

Home | Current Version | Previous Version | Text Only | Print | Product List | Glossary On
Versions: 1 2 3 4 5 6 7 8 9 10 11 12 13
000
FTUS43 KDTX 260306 AAA
TAFMBS
TAF AMD
KMBS 260306Z 2603/2624 02009KT P6SM SCT100
     FM260400 01006KT P6SM SKC
     FM261600 03009KT P6SM BKN045=

USA.gov is the U.S. government's official web portal to all federal, state and local government web resources and services.